Terminal Aerodrome Forecast
Issued by NWS

Home | Current Version | Previous Version | Text Only | Print | Product List | Glossary On
Versions: 1 2 3 4 5 6 7 8 9 10 11 12 13 14 15 16 17
396
FTUS46 KLOX 250539
TAFOXR
TAF
KOXR 250539Z 2506/2606 28008KT P6SM BKN015
     FM251800 25008KT P6SM BKN025
     FM252100 26015KT P6SM BKN035
     FM260100 27008KT P6SM SCT250=

USA.gov is the U.S. government's official web portal to all federal, state and local government web resources and services.